Time;durP1;ratioP1;P1;durP2;ratioP2;P2;SDS_P1;SDS_P2;PMS_P1;PMS_P2;Temp;Humidity;BMP_temperature;BMP_pressure;BME280_temperature;BME280_humidity;BME280_pressure;Samples;Min_cycle;Max_cycle;Signal;HPM_P1;HPM_P2
2023/03/07 00:01:38;;;;;;;19.23;13.68;;;;;;;5.28;100.00;99794.16;5053926;28;20546;-40
2023/03/07 00:04:04;;;;;;;19.27;13.38;;;;;;;5.27;100.00;99798.00;5053544;28;20103;-40
2023/03/07 00:06:29;;;;;;;18.55;13.27;;;;;;;5.28;100.00;99798.81;5053638;28;20072;-40
2023/03/07 00:08:58;;;;;;;19.33;12.38;;;;;;;5.22;99.70;99789.84;5053537;28;20068;-40
2023/03/07 00:11:24;;;;;;;18.92;12.90;;;;;;;5.22;99.93;99792.59;5053319;28;20027;-40
2023/03/07 00:13:49;;;;;;;17.52;12.43;;;;;;;5.19;100.00;99789.63;5053454;28;20463;-39
2023/03/07 00:16:17;;;;;;;17.85;12.27;;;;;;;5.15;100.00;99794.88;5052786;28;20464;-40
2023/03/07 00:18:43;;;;;;;18.23;12.48;;;;;;;5.17;100.00;99794.59;5053171;28;20067;-40
2023/03/07 00:21:11;;;;;;;18.00;12.45;;;;;;;5.13;99.40;99791.63;5053154;28;20052;-40
2023/03/07 00:23:38;;;;;;;17.75;12.40;;;;;;;5.02;99.43;99781.91;5053177;28;20036;-39
2023/03/07 00:26:07;;;;;;;18.05;12.13;;;;;;;4.98;99.85;99776.22;5053246;28;20090;-39
2023/03/07 00:28:33;;;;;;;17.98;12.20;;;;;;;5.06;100.00;99786.50;5053219;28;20036;-39
2023/03/07 00:31:04;;;;;;;16.88;11.90;;;;;;;5.02;99.81;99781.91;5034955;28;20070;-39
2023/03/07 00:33:30;;;;;;;16.85;11.73;;;;;;;5.00;98.85;99777.53;5053113;28;20047;-39
2023/03/07 00:36:07;;;;;;;16.98;11.50;;;;;;;4.96;99.07;99768.25;5052919;28;20477;-39
2023/03/07 00:38:34;;;;;;;15.82;11.40;;;;;;;4.94;98.78;99786.13;5052872;28;20032;-39
2023/03/07 00:41:01;;;;;;;17.60;11.60;;;;;;;4.91;98.83;99779.31;5052875;28;20025;-39
2023/03/07 00:43:27;;;;;;;15.25;11.38;;;;;;;4.90;98.49;99776.88;5052601;28;20036;-39
2023/03/07 00:45:53;;;;;;;15.70;11.27;;;;;;;4.87;98.18;99778.25;5052488;28;20081;-39
2023/03/07 00:48:18;;;;;;;15.98;11.07;;;;;;;4.84;97.88;99778.84;5052674;28;20064;-39
2023/03/07 00:50:44;;;;;;;15.98;11.15;;;;;;;4.84;97.91;99773.38;5052742;28;20031;-40
2023/03/07 00:53:10;;;;;;;15.02;10.95;;;;;;;4.81;97.90;99774.78;5052611;28;20028;-40
2023/03/07 00:55:35;;;;;;;14.43;10.93;;;;;;;4.75;97.61;99773.19;5034470;28;20028;-40
2023/03/07 00:58:00;;;;;;;16.00;11.60;;;;;;;4.78;97.62;99769.88;5052437;28;20428;-39
2023/03/07 01:00:26;;;;;;;15.55;11.40;;;;;;;4.76;97.74;99766.63;5052187;28;20036;-40
2023/03/07 01:02:51;;;;;;;16.20;11.35;;;;;;;4.77;97.91;99772.94;5052515;28;20029;-40
2023/03/07 01:05:16;;;;;;;14.27;10.95;;;;;;;4.72;97.79;99768.31;5052421;28;20047;-40
2023/03/07 01:07:42;;;;;;;15.18;11.02;;;;;;;4.69;97.43;99766.16;5052344;28;20539;-40
2023/03/07 01:10:08;;;;;;;14.52;11.13;;;;;;;4.68;98.35;99767.28;5052092;28;20167;-39
2023/03/07 01:12:33;;;;;;;15.77;11.60;;;;;;;4.68;98.98;99773.56;5052265;28;20052;-40
2023/03/07 01:14:58;;;;;;;15.45;11.20;;;;;;;4.69;99.47;99766.16;5052187;28;20106;-40
2023/03/07 01:17:23;;;;;;;15.60;11.50;;;;;;;4.64;98.92;99758.81;5052188;28;20743;-39
2023/03/07 01:19:49;;;;;;;15.10;11.25;;;;;;;4.67;99.58;99760.16;5052155;28;20047;-40
2023/03/07 01:22:14;;;;;;;15.98;11.65;;;;;;;4.67;99.20;99754.69;5052080;28;20024;-39
2023/03/07 01:24:39;;;;;;;15.70;11.35;;;;;;;4.68;99.40;99754.38;5051888;28;20033;-39
2023/03/07 01:27:04;;;;;;;16.17;11.77;;;;;;;4.68;99.95;99748.09;5052100;28;20047;-39
2023/03/07 01:29:30;;;;;;;16.38;11.80;;;;;;;4.66;99.38;99747.56;5051128;28;20033;-40
2023/03/07 01:31:55;;;;;;;16.35;11.65;;;;;;;4.66;100.00;99750.31;5051777;28;20496;-40
2023/03/07 01:34:21;;;;;;;17.50;11.70;;;;;;;4.63;100.00;99740.75;5051648;28;20053;-40
2023/03/07 01:36:47;;;;;;;17.77;12.10;;;;;;;4.63;100.00;99731.72;5051770;28;20029;-39
2023/03/07 01:39:15;;;;;;;17.20;12.13;;;;;;;4.63;100.00;99748.97;5051848;28;20031;-39
2023/03/07 01:41:42;;;;;;;16.73;12.20;;;;;;;4.64;100.00;99738.81;5051898;28;20029;-40
2023/03/07 01:44:20;;;;;;;17.30;12.30;;;;;;;4.61;100.00;99728.47;5051740;28;20488;-39
2023/03/07 01:46:54;;;;;;;17.30;12.20;;;;;;;4.66;100.00;99733.88;5051669;28;20033;-39
2023/03/07 01:49:22;;;;;;;16.90;12.23;;;;;;;4.67;100.00;99721.81;5051848;28;20025;-39
2023/03/07 01:52:11;;;;;;;17.27;12.40;;;;;;;4.71;100.00;99731.06;5051623;28;20033;-39
2023/03/07 01:54:40;;;;;;;17.20;12.55;;;;;;;4.72;100.00;99729.13;5051814;28;20040;-40
2023/03/07 01:57:06;;;;;;;17.85;12.77;;;;;;;4.73;100.00;99720.63;5051493;28;20465;-39
2023/03/07 01:59:37;;;;;;;17.75;12.70;;;;;;;4.75;100.00;99720.34;5051749;28;20087;-39
2023/03/07 02:02:07;;;;;;;19.33;13.38;;;;;;;4.74;100.00;99718.72;5051422;28;20049;-39
2023/03/07 02:04:44;;;;;;;18.45;13.10;;;;;;;4.74;100.00;99713.22;5034024;28;20434;-39
2023/03/07 02:07:11;;;;;;;18.02;13.13;;;;;;;4.75;100.00;99714.84;5051574;28;20492;-40
2023/03/07 02:09:37;;;;;;;18.67;13.80;;;;;;;4.76;100.00;99708.28;5051613;28;20508;-40
2023/03/07 02:12:03;;;;;;;19.50;13.88;;;;;;;4.75;100.00;99709.38;5051525;28;20116;-39
2023/03/07 02:14:28;;;;;;;19.70;14.45;;;;;;;4.75;100.00;99707.44;5051724;28;20108;-40
2023/03/07 02:16:54;;;;;;;19.85;14.48;;;;;;;4.79;100.00;99704.91;5051603;28;20469;-39
2023/03/07 02:19:57;;;;;;;19.35;14.77;;;;;;;4.83;100.00;99705.97;5051648;28;20028;-39
2023/03/07 02:22:23;;;;;;;20.27;14.85;;;;;;;4.78;100.00;99690.41;5051682;28;20121;-40
2023/03/07 02:24:57;;;;;;;20.00;14.40;;;;;;;4.74;100.00;99683.88;5051578;28;20025;-39
2023/03/07 02:27:24;;;;;;;20.30;14.13;;;;;;;4.79;100.00;99692.06;5051735;28;20051;-39
2023/03/07 02:29:50;;;;;;;20.50;14.88;;;;;;;4.81;100.00;99686.28;5051479;28;20469;-40
2023/03/07 02:32:16;;;;;;;19.35;14.23;;;;;;;4.86;100.00;99693.59;5051484;28;20100;-40
2023/03/07 02:34:41;;;;;;;20.27;14.50;;;;;;;4.88;100.00;99686.69;5051580;28;20029;-40
2023/03/07 02:37:11;;;;;;;20.13;14.60;;;;;;;4.88;100.00;99683.97;5051471;28;20043;-40
2023/03/07 02:39:40;;;;;;;18.52;13.98;;;;;;;4.89;100.00;99682.06;5034373;28;20032;-40
2023/03/07 02:42:19;;;;;;;20.02;14.23;;;;;;;4.87;100.00;99674.09;5037426;28;20123;-40
2023/03/07 02:44:46;;;;;;;20.38;14.45;;;;;;;4.89;100.00;99679.31;5055346;28;20120;-39
2023/03/07 02:47:11;;;;;;;19.02;14.00;;;;;;;4.86;100.00;99675.25;5055216;28;20040;-39
2023/03/07 02:49:37;;;;;;;20.50;14.70;;;;;;;4.86;100.00;99674.41;5055311;28;20047;-39
2023/03/07 02:52:02;;;;;;;20.30;14.75;;;;;;;4.85;100.00;99676.34;5037279;28;20503;-39
2023/03/07 02:54:28;;;;;;;20.55;14.40;;;;;;;4.82;100.00;99672.25;5055435;28;20433;-40
2023/03/07 02:56:53;;;;;;;19.55;13.95;;;;;;;4.83;100.00;99670.34;5037248;28;20427;-39
2023/03/07 02:59:19;;;;;;;19.45;14.05;;;;;;;4.80;100.00;99671.75;5055282;28;20029;-39
2023/03/07 03:01:44;;;;;;;19.63;14.32;;;;;;;4.82;100.00;99675.00;5055146;28;20045;-39
2023/03/07 03:04:10;;;;;;;19.60;13.70;;;;;;;4.83;100.00;99671.16;5057495;28;20547;-39
2023/03/07 03:06:35;;;;;;;18.98;13.82;;;;;;;4.83;100.00;99673.09;5057171;28;20036;-39
2023/03/07 03:09:01;;;;;;;19.33;13.90;;;;;;;4.82;100.00;99668.72;5075183;28;20056;-42
2023/03/07 03:11:26;;;;;;;19.50;14.38;;;;;;;4.79;100.00;99672.88;5075194;28;20130;-40
2023/03/07 03:13:51;;;;;;;19.25;13.55;;;;;;;4.59;100.00;99643.03;5075099;28;20520;-39
2023/03/07 03:16:17;;;;;;;19.38;14.02;;;;;;;4.76;100.00;99672.66;5074954;28;20070;-40
2023/03/07 03:18:42;;;;;;;19.40;13.65;;;;;;;4.71;100.00;99668.06;5074799;28;20563;-39
2023/03/07 03:21:11;;;;;;;19.15;14.00;;;;;;;4.72;100.00;99671.59;5074759;28;20031;-39
2023/03/07 03:23:37;;;;;;;20.52;13.70;;;;;;;4.73;100.00;99674.03;5074842;28;20039;-40
2023/03/07 03:26:06;;;;;;;19.45;13.60;;;;;;;4.68;100.00;99658.47;5074753;28;20068;-40
2023/03/07 03:28:35;;;;;;;19.08;13.65;;;;;;;4.72;100.00;99664.22;5074981;28;20033;-41
2023/03/07 03:31:09;;;;;;;18.48;13.73;;;;;;;4.71;100.00;99664.50;5074516;28;20032;-40
2023/03/07 03:33:34;;;;;;;19.20;14.20;;;;;;;4.66;100.00;99657.16;5074628;28;20108;-40
2023/03/07 03:36:06;;;;;;;19.77;13.82;;;;;;;4.65;100.00;99656.34;5074296;28;20443;-39
2023/03/07 03:38:32;;;;;;;19.48;13.65;;;;;;;4.65;100.00;99659.09;5074323;28;20400;-39
2023/03/07 03:40:57;;;;;;;19.70;13.88;;;;;;;4.64;100.00;99656.63;5074368;28;20546;-40
2023/03/07 03:43:23;;;;;;;18.80;13.57;;;;;;;4.65;100.00;99653.63;5056259;28;20116;-39
2023/03/07 03:45:55;;;;;;;19.08;13.77;;;;;;;4.52;100.00;99633.25;5074097;28;20028;-39
2023/03/07 03:48:20;;;;;;;18.25;13.07;;;;;;;4.62;100.00;99637.75;5074066;28;20041;-40
2023/03/07 03:50:46;;;;;;;19.48;13.57;;;;;;;4.64;100.00;99648.41;5056063;28;20079;-39
2023/03/07 03:53:11;;;;;;;19.30;13.90;;;;;;;4.64;100.00;99642.94;5072952;28;20031;-39
2023/03/07 03:55:36;;;;;;;18.83;13.73;;;;;;;4.65;100.00;99639.91;5073952;28;20036;-40
2023/03/07 03:58:01;;;;;;;18.70;13.73;;;;;;;4.66;100.00;99629.75;5073831;28;20119;-39
2023/03/07 04:00:29;;;;;;;18.45;13.32;;;;;;;4.63;100.00;99630.38;5073653;28;20040;-39
2023/03/07 04:02:55;;;;;;;19.55;13.88;;;;;;;4.64;100.00;99629.25;5073791;28;20020;-39
2023/03/07 04:05:20;;;;;;;18.75;13.75;;;;;;;4.61;100.00;99616.16;5073763;28;20025;-39
2023/03/07 04:07:46;;;;;;;18.77;13.13;;;;;;;4.62;100.00;99615.84;5073591;28;20476;-39
2023/03/07 04:10:11;;;;;;;19.65;13.52;;;;;;;4.68;100.00;99624.81;5073636;28;20036;-40
2023/03/07 04:12:36;;;;;;;19.05;13.68;;;;;;;4.66;100.00;99611.41;5073608;28;20048;-39
2023/03/07 04:15:02;;;;;;;19.15;13.27;;;;;;;4.64;100.00;99610.91;5073515;28;20039;-39
2023/03/07 04:17:27;;;;;;;20.40;13.40;;;;;;;4.57;100.00;99598.66;5073377;28;20384;-39
2023/03/07 04:19:52;;;;;;;18.17;12.88;;;;;;;4.60;100.00;99595.34;5073254;28;20024;-40
2023/03/07 04:22:18;;;;;;;19.15;12.75;;;;;;;4.56;100.00;99595.13;5073241;28;20102;-39
2023/03/07 04:24:44;;;;;;;19.17;13.30;;;;;;;4.57;100.00;99596.75;5073266;28;20040;-39
2023/03/07 04:27:09;;;;;;;19.27;13.05;;;;;;;4.53;100.00;99596.50;5055322;28;20508;-39
2023/03/07 04:29:34;;;;;;;17.70;13.20;;;;;;;4.55;100.00;99598.97;5073226;28;20024;-39
2023/03/07 04:32:00;;;;;;;17.95;13.10;;;;;;;4.55;100.00;99587.19;5073027;28;20029;-39
2023/03/07 04:34:25;;;;;;;18.77;13.43;;;;;;;4.50;100.00;99580.69;5073142;28;20116;-39
2023/03/07 04:36:50;;;;;;;17.67;12.73;;;;;;;4.52;100.00;99583.13;5055069;28;20028;-39
2023/03/07 04:39:16;;;;;;;18.60;13.00;;;;;;;4.52;100.00;99581.22;5073255;28;20494;-39
2023/03/07 04:41:41;;;;;;;17.95;12.68;;;;;;;4.52;100.00;99586.69;5054986;28;20027;-39
2023/03/07 04:44:06;;;;;;;18.42;12.88;;;;;;;4.50;100.00;99585.34;5072938;28;20495;-39
2023/03/07 04:46:32;;;;;;;17.80;12.80;;;;;;;4.52;100.00;99581.22;5072711;28;20090;-39
2023/03/07 04:48:57;;;;;;;19.17;13.13;;;;;;;4.53;100.00;99582.81;5072763;28;20464;-40
2023/03/07 04:51:23;;;;;;;18.90;13.13;;;;;;;4.54;100.00;99586.38;5072713;28;20024;-39
2023/03/07 04:53:48;;;;;;;17.25;12.68;;;;;;;4.52;100.00;99581.22;5072552;28;20099;-39
2023/03/07 04:56:15;;;;;;;18.83;13.00;;;;;;;4.49;100.00;99573.59;5072735;28;20032;-39
2023/03/07 04:58:40;;;;;;;18.73;13.10;;;;;;;4.50;100.00;99574.38;5054382;28;20103;-39
2023/03/07 05:01:06;;;;;;;18.50;13.02;;;;;;;4.51;100.00;99573.28;5054405;28;20552;-39
2023/03/07 05:03:32;;;;;;;18.02;12.88;;;;;;;4.50;100.00;99564.25;5072383;28;20108;-40
2023/03/07 05:06:02;;;;;;;18.70;12.98;;;;;;;4.48;100.00;99558.25;5071740;28;20114;-39
2023/03/07 05:08:27;;;;;;;18.42;12.85;;;;;;;4.48;100.00;99566.47;5072539;28;20571;-40
2023/03/07 05:10:52;;;;;;;18.17;13.32;;;;;;;4.47;100.00;99559.38;5072352;28;20109;-40
2023/03/07 05:13:18;;;;;;;18.58;13.48;;;;;;;4.47;100.00;99562.09;5072340;28;20078;-40
2023/03/07 05:15:48;;;;;;;20.05;12.82;;;;;;;4.50;100.00;99556.03;5072517;28;20044;-39
2023/03/07 05:18:13;;;;;;;19.73;13.20;;;;;;;4.52;100.00;99569.44;5072138;28;20033;-41
2023/03/07 05:20:41;;;;;;;18.92;12.60;;;;;;;4.55;100.00;99559.81;5072281;28;20067;-39
2023/03/07 05:23:07;;;;;;;20.27;12.70;;;;;;;4.57;100.00;99565.81;5072277;28;20054;-40
2023/03/07 05:25:32;;;;;;;19.65;13.10;;;;;;;4.56;100.00;99559.53;5072306;28;20486;-40
2023/03/07 05:27:57;;;;;;;19.33;13.27;;;;;;;4.57;100.00;99558.41;5072267;28;20032;-39
2023/03/07 05:30:23;;;;;;;18.20;13.27;;;;;;;4.54;100.00;99564.47;5072090;28;20028;-40
2023/03/07 05:32:50;;;;;;;18.88;13.55;;;;;;;4.53;100.00;99555.44;5072209;28;20040;-39
2023/03/07 05:35:15;;;;;;;19.98;13.50;;;;;;;4.49;100.00;99546.19;5072027;28;20099;-39
2023/03/07 05:37:40;;;;;;;21.52;13.40;;;;;;;4.52;100.00;99553.84;5072070;28;20116;-39
2023/03/07 05:40:09;;;;;;;20.52;13.50;;;;;;;4.51;100.00;99556.84;5072177;28;20103;-40
2023/03/07 05:42:35;;;;;;;19.65;13.45;;;;;;;4.50;100.00;99552.47;5072119;28;20071;-39
2023/03/07 05:45:01;;;;;;;18.95;14.20;;;;;;;4.47;100.00;99561.31;5072136;28;20056;-39
2023/03/07 05:47:26;;;;;;;19.83;13.20;;;;;;;4.46;100.00;99557.75;5072063;28;20025;-39
2023/03/07 05:49:51;;;;;;;19.27;13.77;;;;;;;4.45;100.00;99549.81;5072055;28;20036;-39
2023/03/07 05:52:17;;;;;;;19.77;13.90;;;;;;;4.44;100.00;99559.16;5071971;28;20111;-40
2023/03/07 05:54:42;;;;;;;20.42;13.75;;;;;;;4.46;100.00;99556.94;5071937;28;20036;-39
2023/03/07 05:57:07;;;;;;;18.73;13.20;;;;;;;4.45;100.00;99555.31;5071208;28;20024;-39
2023/03/07 05:59:32;;;;;;;21.05;13.40;;;;;;;4.48;100.00;99549.25;5070830;28;20040;-39
2023/03/07 06:01:58;;;;;;;18.65;13.55;;;;;;;4.44;100.00;99551.72;5068389;28;20052;-39
2023/03/07 06:04:23;;;;;;;19.88;13.88;;;;;;;4.45;100.00;99550.63;5050690;28;20432;-39
2023/03/07 06:06:48;;;;;;;18.90;13.15;;;;;;;4.40;100.00;99544.41;5050921;28;20029;-40
2023/03/07 06:09:14;;;;;;;19.83;13.27;;;;;;;4.42;100.00;99543.03;5050817;28;20065;-39
2023/03/07 06:11:39;;;;;;;20.15;13.30;;;;;;;4.34;100.00;99539.03;5050903;28;20036;-40
2023/03/07 06:14:04;;;;;;;19.35;13.10;;;;;;;4.45;100.00;99560.78;5050744;28;20025;-39
2023/03/07 06:16:30;;;;;;;19.55;13.20;;;;;;;4.42;100.00;99561.38;5054182;28;20033;-40
2023/03/07 06:18:55;;;;;;;19.83;13.18;;;;;;;4.43;100.00;99552.88;5054831;28;20025;-40
2023/03/07 06:21:20;;;;;;;20.63;13.75;;;;;;;4.41;100.00;99549.59;5061617;28;20471;-40
2023/03/07 06:23:46;;;;;;;19.85;13.50;;;;;;;4.34;100.00;99532.75;5074741;28;20024;-40
2023/03/07 06:26:12;;;;;;;19.92;13.30;;;;;;;4.38;100.00;99552.94;5074892;28;20117;-40
2023/03/07 06:28:39;;;;;;;19.30;13.20;;;;;;;4.35;100.00;99545.31;5074818;28;20062;-40
2023/03/07 06:31:09;;;;;;;19.73;13.40;;;;;;;4.28;100.00;99542.13;5074799;28;20500;-40
2023/03/07 06:33:34;;;;;;;19.52;12.88;;;;;;;4.33;100.00;99555.75;5074758;28;20024;-39
2023/03/07 06:36:04;;;;;;;19.92;12.73;;;;;;;4.29;100.00;99557.44;5074721;28;20040;-39
2023/03/07 06:38:29;;;;;;;20.15;12.98;;;;;;;4.30;100.00;99561.81;5074632;28;20099;-39
2023/03/07 06:40:55;;;;;;;18.98;12.40;;;;;;;4.28;100.00;99564.03;5074665;28;20132;-39
2023/03/07 06:43:21;;;;;;;20.02;13.02;;;;;;;4.26;100.00;99561.59;5074515;28;20033;-39
2023/03/07 06:45:46;;;;;;;20.48;13.00;;;;;;;4.29;100.00;99561.00;5074024;28;20027;-40
2023/03/07 06:48:11;;;;;;;19.05;13.38;;;;;;;4.33;100.00;99555.75;5055389;28;20032;-40
2023/03/07 06:50:37;;;;;;;19.50;13.10;;;;;;;4.42;100.00;99551.25;5069665;28;20059;-39
2023/03/07 06:53:02;;;;;;;19.70;13.68;;;;;;;4.48;100.00;99555.53;5073461;28;20086;-39
2023/03/07 06:55:27;;;;;;;18.90;13.70;;;;;;;4.44;100.00;99557.22;5073769;28;20017;-39
2023/03/07 06:57:53;;;;;;;20.67;13.85;;;;;;;4.42;100.00;99553.16;5055479;28;20078;-39
2023/03/07 07:00:18;;;;;;;20.55;14.52;;;;;;;4.42;100.00;99555.88;5073440;28;20540;-39
2023/03/07 07:02:44;;;;;;;19.60;14.00;;;;;;;4.41;100.00;99555.09;5073401;28;20567;-39
2023/03/07 07:05:09;;;;;;;18.50;13.52;;;;;;;4.42;100.00;99559.47;5072614;28;20031;-39
2023/03/07 07:07:34;;;;;;;19.23;13.50;;;;;;;4.32;99.55;99571.34;5072993;28;20032;-39
2023/03/07 07:10:00;;;;;;;19.70;13.65;;;;;;;4.27;100.00;99565.13;5055018;28;20028;-41
2023/03/07 07:12:26;;;;;;;20.13;13.77;;;;;;;4.22;100.00;99564.13;5074613;28;20089;-40
2023/03/07 07:14:51;;;;;;;20.52;13.73;;;;;;;4.33;100.00;99578.47;5074641;28;20107;-39
2023/03/07 07:17:16;;;;;;;18.17;13.57;;;;;;;4.40;100.00;99578.09;5074499;28;20029;-39
2023/03/07 07:19:41;;;;;;;19.13;13.80;;;;;;;4.46;100.00;99584.31;5074494;28;20028;-39
2023/03/07 07:22:10;;;;;;;21.30;14.30;;;;;;;4.41;99.61;99571.50;5074398;28;20120;-39
2023/03/07 07:24:37;;;;;;;19.88;14.10;;;;;;;4.37;99.34;99575.94;5074347;28;20492;-39
2023/03/07 07:27:03;;;;;;;21.00;14.15;;;;;;;4.30;98.61;99562.63;5074161;28;20473;-39
2023/03/07 07:29:28;;;;;;;20.30;13.73;;;;;;;4.25;98.50;99564.63;5074351;28;20039;-39
2023/03/07 07:31:53;;;;;;;20.33;14.05;;;;;;;4.22;97.10;99577.81;5054711;28;20032;-40
2023/03/07 07:34:19;;;;;;;19.08;13.95;;;;;;;4.15;97.21;99574.63;5072004;28;20437;-39
2023/03/07 07:36:44;;;;;;;19.73;13.77;;;;;;;4.13;97.71;99585.03;5073935;28;20031;-39
2023/03/07 07:39:11;;;;;;;20.52;14.27;;;;;;;4.06;96.97;99595.53;5073996;28;20021;-39
2023/03/07 07:41:37;;;;;;;20.48;13.95;;;;;;;4.01;98.91;99596.44;5073941;28;20029;-39
2023/03/07 07:44:02;;;;;;;20.13;14.30;;;;;;;4.01;97.77;99593.69;5072707;28;20036;-39
2023/03/07 07:46:27;;;;;;;20.15;13.95;;;;;;;4.08;98.17;99608.94;5073774;28;20028;-39
2023/03/07 07:48:54;;;;;;;19.75;14.50;;;;;;;4.08;97.51;99615.19;5040273;28;20457;-40
2023/03/07 07:51:20;;;;;;;22.00;15.63;;;;;;;4.19;98.70;99616.72;5054924;28;20538;-40
2023/03/07 07:53:45;;;;;;;21.75;15.23;;;;;;;4.35;97.86;99632.91;5073077;28;20111;-39
2023/03/07 07:56:11;;;;;;;20.55;14.88;;;;;;;4.44;96.20;99630.34;5072834;28;20115;-40
2023/03/07 07:58:37;;;;;;;20.73;14.85;;;;;;;4.48;95.43;99631.41;5072484;28;20107;-40
2023/03/07 08:01:19;;;;;;;21.08;15.02;;;;;;;4.53;94.53;99631.31;5072104;28;20105;-39
2023/03/07 08:03:45;;;;;;;21.00;15.40;;;;;;;4.49;94.12;99638.47;5072391;28;20598;-40
2023/03/07 08:06:11;;;;;;;19.65;14.30;;;;;;;4.39;94.00;99631.25;5071477;28;20029;-41
2023/03/07 08:08:36;;;;;;;20.45;14.63;;;;;;;4.42;94.58;99636.13;5069712;28;20064;-40
2023/03/07 08:11:02;;;;;;;20.10;14.70;;;;;;;4.46;94.56;99642.63;5068844;28;20048;-40
2023/03/07 08:13:27;;;;;;;18.88;13.30;;;;;;;4.45;93.53;99642.94;5069181;28;20373;-39
2023/03/07 08:15:53;;;;;;;19.27;13.35;;;;;;;4.46;93.12;99644.56;5069348;28;20817;-40
2023/03/07 08:18:19;;;;;;;19.10;13.18;;;;;;;4.37;92.81;99645.22;5069482;28;20029;-39
2023/03/07 08:20:44;;;;;;;17.95;12.48;;;;;;;4.32;93.54;99653.50;5052213;28;20567;-39
2023/03/07 08:23:09;;;;;;;18.42;12.43;;;;;;;4.32;92.51;99641.75;5070589;28;20032;-40
2023/03/07 08:25:35;;;;;;;19.90;12.82;;;;;;;4.43;93.03;99648.72;5071775;28;20559;-39
2023/03/07 08:28:03;;;;;;;18.35;12.60;;;;;;;4.35;91.67;99643.88;5071354;28;20089;-40
2023/03/07 08:30:29;;;;;;;17.77;12.88;;;;;;;4.40;92.03;99651.22;5070416;28;20039;-39
2023/03/07 08:32:55;;;;;;;17.27;12.18;;;;;;;4.31;91.60;99654.59;5071734;28;20032;-39
2023/03/07 08:35:23;;;;;;;17.30;11.93;;;;;;;4.16;91.86;99663.03;5071488;28;20036;-40
2023/03/07 08:37:53;;;;;;;16.17;11.43;;;;;;;3.96;91.97;99655.88;5071063;28;20611;-39
2023/03/07 08:40:20;;;;;;;16.73;11.50;;;;;;;4.06;93.30;99663.97;5053322;28;20769;-39
2023/03/07 08:42:45;;;;;;;16.42;11.80;;;;;;;3.98;92.52;99657.19;5071426;28;20039;-39
2023/03/07 08:45:11;;;;;;;16.08;11.10;;;;;;;4.01;92.82;99656.63;5053592;28;20024;-39
2023/03/07 08:47:36;;;;;;;15.68;11.35;;;;;;;4.01;92.37;99653.06;5071367;28;20499;-40
2023/03/07 08:50:02;;;;;;;15.32;11.35;;;;;;;4.00;92.60;99649.53;5071414;28;20429;-40
2023/03/07 08:52:27;;;;;;;16.30;11.50;;;;;;;3.93;91.35;99656.44;5071392;28;20039;-39
2023/03/07 08:54:53;;;;;;;16.85;11.40;;;;;;;3.77;92.18;99647.59;5053310;28;20032;-39
2023/03/07 08:57:18;;;;;;;16.35;12.13;;;;;;;3.69;93.55;99649.84;5053105;28;20043;-39
2023/03/07 08:59:43;;;;;;;15.77;11.30;;;;;;;3.85;95.53;99646.94;5071284;28;20031;-40
2023/03/07 09:02:10;;;;;;;16.38;11.50;;;;;;;3.99;94.41;99656.09;5070821;28;20052;-39
2023/03/07 09:04:36;;;;;;;15.98;11.63;;;;;;;4.02;91.74;99650.03;5071225;28;20027;-39
2023/03/07 09:07:01;;;;;;;16.55;11.60;;;;;;;3.90;91.86;99647.69;5070972;28;20334;-39
2023/03/07 09:09:28;;;;;;;17.25;11.68;;;;;;;3.77;92.90;99653.06;5071002;28;20082;-39
2023/03/07 09:11:53;;;;;;;17.88;11.60;;;;;;;3.61;93.93;99647.75;5070905;28;20146;-39
2023/03/07 09:14:18;;;;;;;18.30;11.95;;;;;;;3.62;94.43;99657.59;5071036;28;20447;-39
2023/03/07 09:16:43;;;;;;;20.15;12.73;;;;;;;3.63;94.42;99652.91;5071120;28;20040;-39
2023/03/07 09:19:09;;;;;;;20.23;13.73;;;;;;;3.57;94.32;99647.50;5060081;28;20031;-40
2023/03/07 09:21:34;;;;;;;19.77;13.20;;;;;;;3.53;94.27;99649.19;5051061;28;20045;-39
2023/03/07 09:23:59;;;;;;;20.67;13.90;;;;;;;3.48;94.65;99645.69;5050983;28;20024;-40
2023/03/07 09:26:25;;;;;;;22.30;14.10;;;;;;;3.47;95.53;99658.56;5050694;28;20400;-39
2023/03/07 09:28:50;;;;;;;19.90;13.70;;;;;;;3.32;96.06;99642.25;5050928;28;20530;-40
2023/03/07 09:31:15;;;;;;;20.52;14.43;;;;;;;3.46;96.00;99680.69;5049496;28;20397;-39
2023/03/07 09:33:41;;;;;;;19.80;13.40;;;;;;;3.43;96.04;99671.16;5050969;28;20033;-40
2023/03/07 09:36:10;;;;;;;18.40;13.32;;;;;;;3.38;96.70;99661.06;5033119;28;20028;-39
2023/03/07 09:38:36;;;;;;;19.52;13.43;;;;;;;3.50;96.76;99677.09;5032805;28;20032;-39
2023/03/07 09:41:41;;;;;;;19.63;13.23;;;;;;;3.57;96.84;99676.75;5050723;28;20021;-41
2023/03/07 09:44:15;;;;;;;;;;;;;;;3.64;96.01;99669.03;5035841;28;20098;-40
2023/03/07 09:47:03;;;;;;;19.75;13.52;;;;;;;3.61;95.55;99668.81;5050505;28;19966;-40
2023/03/07 09:49:43;;;;;;;19.33;13.40;;;;;;;3.63;95.54;99667.44;5049630;28;20033;-40
2023/03/07 09:52:23;;;;;;;18.67;13.35;;;;;;;3.65;96.29;99664.41;5050735;28;20029;-40
2023/03/07 09:55:00;;;;;;;19.17;13.23;;;;;;;3.64;96.76;99669.03;5056477;28;20029;-39
2023/03/07 09:57:36;;;;;;;18.73;13.05;;;;;;;3.68;95.76;99670.09;5042665;28;20029;-39
2023/03/07 10:00:20;;;;;;;18.17;12.60;;;;;;;3.70;96.32;99669.81;5050624;28;20495;-39
2023/03/07 10:03:01;;;;;;;19.27;12.90;;;;;;;3.69;96.27;99665.44;5050725;28;20049;-39
2023/03/07 10:05:44;;;;;;;19.27;12.80;;;;;;;3.71;97.11;99663.22;5050605;28;20112;-40
2023/03/07 10:08:16;;;;;;;17.48;12.02;;;;;;;3.64;95.94;99658.09;5050463;28;20032;-39
2023/03/07 10:10:51;;;;;;;17.95;12.77;;;;;;;3.71;96.77;99671.44;5050476;28;20029;-39
2023/03/07 10:13:33;;;;;;;18.10;12.85;;;;;;;3.81;96.45;99663.13;5055088;28;20770;-40
2023/03/07 10:16:17;;;;;;;19.30;12.68;;;;;;;3.79;97.02;99659.06;5050506;28;20079;-39
2023/03/07 10:19:02;;;;;;;19.05;12.77;;;;;;;3.85;96.85;99663.34;5050309;28;20446;-39
2023/03/07 10:21:45;;;;;;;;;;;;;;;3.92;95.95;99671.22;5050854;28;20040;-39
2023/03/07 10:24:42;;;;;;;19.25;12.60;;;;;;;3.95;96.47;99665.97;5050915;28;19956;-39
2023/03/07 10:27:11;;;;;;;18.70;12.10;;;;;;;3.85;95.73;99652.41;5050801;28;20565;-39
2023/03/07 10:29:49;;;;;;;18.27;12.70;;;;;;;3.95;97.18;99659.72;5031416;28;20567;-41
2023/03/07 10:32:25;;;;;;;19.25;13.13;;;;;;;3.99;95.85;99668.94;5050406;28;20145;-39
2023/03/07 10:35:10;;;;;;;17.73;12.35;;;;;;;4.01;96.09;99670.31;5050345;28;20100;-39
2023/03/07 10:38:00;;;;;;;19.38;13.35;;;;;;;3.84;96.47;99635.19;5039107;28;20477;-39
2023/03/07 10:40:42;;;;;;;19.40;13.63;;;;;;;4.07;96.48;99662.84;5050211;28;20108;-39
2023/03/07 10:43:30;;;;;;;19.98;13.00;;;;;;;4.06;96.40;99667.50;5032304;28;20029;-39
2023/03/07 10:46:02;;;;;;;18.92;13.02;;;;;;;4.09;95.91;99665.31;5050262;28;20033;-40
2023/03/07 10:48:30;;;;;;;18.58;12.90;;;;;;;4.16;96.01;99671.22;5055313;28;20564;-40
2023/03/07 10:51:06;;;;;;;19.35;12.77;;;;;;;4.09;95.08;99663.38;5070174;28;20091;-39
2023/03/07 10:53:35;;;;;;;18.50;13.20;;;;;;;4.18;95.50;99663.53;5070190;28;20148;-39
2023/03/07 10:56:15;;;;;;;18.80;13.23;;;;;;;4.22;96.91;99651.72;5069572;28;20027;-39
2023/03/07 10:59:23;;;;;;;18.40;12.57;;;;;;;4.37;96.00;99666.31;5069973;28;20055;-39
2023/03/07 11:01:57;;;;;;;18.35;12.80;;;;;;;4.34;95.79;99653.22;4972701;28;20589;-39
2023/03/07 11:04:26;;;;;;;19.40;12.63;;;;;;;4.40;95.95;99652.03;4990058;28;20077;-39
2023/03/07 11:06:53;;;;;;;18.50;12.30;;;;;;;4.51;95.79;99667.22;5027462;28;20033;-39
2023/03/07 11:09:24;;;;;;;18.70;12.05;;;;;;;4.54;94.68;99663.09;5054084;28;20099;-39
2023/03/07 11:11:57;;;;;;;18.48;12.65;;;;;;;4.52;93.90;99668.88;5054193;28;20163;-39
2023/03/07 11:14:26;;;;;;;18.45;12.73;;;;;;;4.47;94.18;99671.66;5054116;28;20035;-40
2023/03/07 11:17:00;;;;;;;18.40;11.90;;;;;;;4.40;94.13;99648.47;5056781;28;20036;-39
2023/03/07 11:19:39;;;;;;;17.30;12.23;;;;;;;4.47;93.97;99668.13;5053438;28;20111;-41
2023/03/07 11:22:23;;;;;;;17.38;11.77;;;;;;;4.48;94.68;99664.28;5058357;28;20024;-40
2023/03/07 11:25:00;;;;;;;;;;;;;;;4.52;94.58;99663.38;5053773;28;20021;-37
2023/03/07 11:27:34;;;;;;;18.20;12.43;;;;;;;4.49;95.08;99657.66;5053578;28;20007;-37